Time;durP1;ratioP1;P1;durP2;ratioP2;P2;SDS_P1;SDS_P2;PMS_P1;PMS_P2;Temp;Humidity;BMP_temperature;BMP_pressure;BME280_temperature;BME280_humidity;BME280_pressure;Samples;Min_cycle;Max_cycle;Signal;HPM_P1;HPM_P2
2023/03/07 00:02:27;;;;;;;22.07;14.30;;;-4.50;99.90;-5.80;98785;;;;564492;250;25141;-75
2023/03/07 00:04:54;;;;;;;19.50;12.60;;;-4.50;99.90;-5.90;98788;;;;564434;250;24163;-76
2023/03/07 00:07:22;;;;;;;18.63;12.97;;;-4.60;99.90;-5.90;98787;;;;564379;250;25137;-76
2023/03/07 00:09:50;;;;;;;18.00;12.43;;;-4.60;99.90;-5.90;98785;;;;564435;250;24121;-75
2023/03/07 00:12:20;;;;;;;19.17;12.80;;;-4.60;99.90;-6.00;98769;;;;565022;249;24163;-77
2023/03/07 00:14:46;;;;;;;23.97;13.80;;;-4.70;99.90;-6.00;98768;;;;565475;249;24176;-77
2023/03/07 00:17:14;;;;;;;18.13;12.60;;;-4.70;99.90;-6.00;98770;;;;565327;250;24146;-77
2023/03/07 00:19:46;;;;;;;18.10;13.13;;;-4.70;99.90;-6.00;98766;;;;564811;250;24110;-75
2023/03/07 00:22:13;;;;;;;21.00;14.23;;;-4.70;99.90;-6.00;98761;;;;565024;250;24144;-75
2023/03/07 00:24:41;;;;;;;22.63;15.33;;;-4.70;99.90;-6.00;98760;;;;564497;250;24133;-76
2023/03/07 00:27:09;;;;;;;21.13;14.87;;;-4.70;99.90;-6.00;98756;;;;570456;250;24174;-77
2023/03/07 00:29:36;;;;;;;23.37;14.27;;;-4.70;99.90;-6.00;98756;;;;564632;250;24132;-76
2023/03/07 00:32:04;;;;;;;22.50;14.77;;;-4.70;99.90;-6.00;98756;;;;564288;250;24156;-76
2023/03/07 00:34:32;;;;;;;20.80;14.50;;;-4.70;99.90;-6.00;98753;;;;564442;250;24127;-76
2023/03/07 00:37:00;;;;;;;17.80;13.53;;;-4.70;99.90;-6.00;98755;;;;564359;250;24121;-76
2023/03/07 00:39:28;;;;;;;18.83;13.93;;;-4.70;99.90;-6.00;98749;;;;564194;247;24271;-75
2023/03/07 00:41:56;;;;;;;18.43;13.50;;;-4.70;99.90;-6.00;98752;;;;564328;250;24173;-75
2023/03/07 00:44:25;;;;;;;22.07;13.80;;;-4.70;99.90;-6.00;98755;;;;564193;250;24173;-77
2023/03/07 00:46:52;;;;;;;21.60;14.60;;;-4.70;99.90;-6.00;98740;;;;564288;250;24139;-76
2023/03/07 00:49:20;;;;;;;17.53;12.83;;;-4.70;99.90;-5.90;98745;;;;563848;250;24158;-75
2023/03/07 00:51:48;;;;;;;21.90;14.63;;;-4.70;99.90;-5.90;98745;;;;564201;250;24121;-76
2023/03/07 00:54:16;;;;;;;20.20;14.30;;;-4.60;99.90;-5.80;98731;;;;564101;250;24100;-77
2023/03/07 00:56:44;;;;;;;19.70;13.20;;;-4.60;99.90;-5.80;98727;;;;573052;247;24211;-76
2023/03/07 00:59:12;;;;;;;20.70;14.60;;;-4.50;99.90;-5.70;98732;;;;564294;250;24123;-78
2023/03/07 01:01:41;;;;;;;21.20;14.17;;;-4.50;99.90;-5.70;98731;;;;564174;250;24145;-77
2023/03/07 01:04:12;;;;;;;17.33;12.80;;;-4.50;99.90;-5.70;98725;;;;564193;250;25169;-83
2023/03/07 01:06:37;;;;;;;23.37;13.70;;;-4.40;99.90;-5.60;98727;;;;563833;250;24200;-81
2023/03/07 01:09:06;;;;;;;20.47;13.10;;;-4.40;99.90;-5.60;98724;;;;564122;250;24122;-82
2023/03/07 01:11:36;;;;;;;19.00;13.30;;;-4.40;99.90;-5.60;98728;;;;565011;250;24136;-84
2023/03/07 01:14:04;;;;;;;16.37;12.63;;;-4.40;99.90;-5.60;98714;;;;572525;247;24104;-84
2023/03/07 01:16:29;;;;;;;15.07;12.50;;;-4.40;99.90;-5.60;98709;;;;564634;250;24212;-78
2023/03/07 01:18:57;;;;;;;19.57;13.43;;;-4.40;99.90;-5.60;98712;;;;564345;250;24206;-77
2023/03/07 01:21:28;;;;;;;19.43;13.03;;;-4.40;99.90;-5.60;98703;;;;564259;250;24122;-77
2023/03/07 01:23:56;;;;;;;17.27;13.57;;;-4.40;99.90;-5.60;98702;;;;565378;249;24119;-82
2023/03/07 01:26:24;;;;;;;18.53;12.37;;;-4.40;99.90;-5.60;98689;;;;578267;246;24126;-84
2023/03/07 01:28:52;;;;;;;16.90;12.80;;;-4.30;99.90;-5.60;98692;;;;565063;250;24113;-78
2023/03/07 01:31:20;;;;;;;23.47;14.23;;;-4.30;99.90;-5.60;98692;;;;596263;240;24119;-85
2023/03/07 01:33:47;;;;;;;18.17;13.00;;;-4.40;99.90;-5.60;98691;;;;575331;245;24101;-85
2023/03/07 01:36:21;;;;;;;19.73;12.10;;;-4.30;99.90;-5.60;98695;;;;564549;250;24187;-77
2023/03/07 01:38:52;;;;;;;22.63;13.23;;;-4.30;99.90;-5.60;98683;;;;573388;250;24125;-76
2023/03/07 01:41:17;;;;;;;19.73;13.03;;;-4.30;99.90;-5.60;98685;;;;564120;250;24102;-78
2023/03/07 01:43:44;;;;;;;18.73;12.07;;;-4.30;99.90;-5.50;98664;;;;564212;250;24137;-80
2023/03/07 01:46:21;;;;;;;18.17;12.90;;;-4.30;99.90;-5.50;98668;;;;564026;250;24087;-79
2023/03/07 01:48:58;;;;;;;19.37;12.63;;;-4.30;99.90;-5.50;98673;;;;564262;250;24122;-77
2023/03/07 01:51:25;;;;;;;19.57;12.00;;;-4.30;99.90;-5.50;98671;;;;564016;250;24128;-80
2023/03/07 01:53:54;;;;;;;18.53;11.17;;;-4.20;99.90;-5.50;98669;;;;570687;250;24146;-77
2023/03/07 01:56:27;;;;;;;17.37;11.67;;;-4.20;99.90;-5.40;98658;;;;595631;240;25118;-77
2023/03/07 01:58:51;;;;;;;14.83;10.73;;;-4.20;99.90;-5.40;98658;;;;588301;240;24090;-80
2023/03/07 02:01:20;;;;;;;18.63;11.83;;;-4.20;99.90;-5.40;98662;;;;564931;249;24110;-78
2023/03/07 02:03:48;;;;;;;16.33;11.67;;;-4.20;99.90;-5.50;98662;;;;571880;247;24154;-76
2023/03/07 02:06:16;;;;;;;18.17;11.17;;;-4.20;99.90;-5.50;98656;;;;576717;245;24084;-80
2023/03/07 02:08:44;;;;;;;16.30;10.43;;;-4.30;99.90;-5.60;98658;;;;586515;240;24059;-75
2023/03/07 02:11:15;;;;;;;18.03;11.47;;;-4.30;99.90;-5.60;98658;;;;588416;240;24145;-79
2023/03/07 02:13:40;;;;;;;15.60;10.10;;;-4.30;99.90;-5.60;98654;;;;574766;242;24108;-82
2023/03/07 02:16:11;;;;;;;18.50;12.27;;;-4.40;99.90;-5.60;98651;;;;564116;250;24161;-82
2023/03/07 02:18:36;;;;;;;16.00;12.37;;;-4.40;99.90;-5.70;98637;;;;563968;250;25181;-81
2023/03/07 02:21:18;;;;;;;18.17;11.93;;;-4.40;99.90;-5.60;98643;;;;563990;250;24487;-82
2023/03/07 02:24:04;;;;;;;16.40;12.17;;;-4.40;99.90;-5.60;98642;;;;571393;245;35386;-80
2023/03/07 02:26:32;;;;;;;17.53;11.60;;;-4.40;99.90;-5.60;98644;;;;578127;246;24143;-73
2023/03/07 02:29:04;;;;;;;18.77;11.57;;;-4.40;99.90;-5.60;98640;;;;572823;246;24052;-73
2023/03/07 02:31:28;;;;;;;17.47;12.03;;;-4.40;99.90;-5.60;98641;;;;577621;246;24137;-77
2023/03/07 02:33:59;;;;;;;15.90;11.30;;;-4.40;99.90;-5.60;98641;;;;584306;246;24120;-76
2023/03/07 02:36:30;;;;;;;16.57;11.10;;;-4.40;99.90;-5.60;98643;;;;576831;246;24079;-74
2023/03/07 02:38:58;;;;;;;15.77;10.63;;;-4.30;99.90;-5.60;98638;;;;574218;246;24056;-73
2023/03/07 02:41:26;;;;;;;15.77;10.23;;;-4.40;99.90;-5.60;98641;;;;574040;246;24094;-77
2023/03/07 02:43:55;;;;;;;17.20;12.20;;;-4.40;99.90;-5.60;98643;;;;580107;246;24204;-74
2023/03/07 02:46:24;;;;;;;15.23;11.70;;;-4.40;99.90;-5.70;98637;;;;584279;245;24123;-77
2023/03/07 02:48:52;;;;;;;19.20;11.73;;;-4.30;99.90;-5.60;98632;;;;584368;245;24045;-80
2023/03/07 02:51:24;;;;;;;17.27;12.30;;;-4.40;99.90;-5.60;98626;;;;584261;245;24180;-80
2023/03/07 02:53:48;;;;;;;19.43;12.00;;;-4.40;99.90;-5.60;98632;;;;575887;246;24065;-77
2023/03/07 02:56:16;;;;;;;19.67;12.73;;;-4.30;99.90;-5.60;98628;;;;584070;246;24150;-75
2023/03/07 02:58:44;;;;;;;16.23;11.80;;;-4.30;99.90;-5.60;98622;;;;587617;243;24078;-79
2023/03/07 03:01:12;;;;;;;16.87;11.90;;;-4.40;99.90;-5.70;98615;;;;579740;243;24056;-78
2023/03/07 03:03:40;;;;;;;18.33;12.17;;;-4.40;99.90;-5.70;98618;;;;589852;243;24062;-78
2023/03/07 03:06:09;;;;;;;17.23;11.73;;;-4.50;99.90;-5.70;98609;;;;579950;243;24048;-76
2023/03/07 03:08:36;;;;;;;21.45;12.65;;;-4.40;99.90;-5.70;98608;;;;574843;243;35187;-78
2023/03/07 03:11:04;;;;;;;17.70;10.97;;;-4.50;99.90;-5.80;98613;;;;579658;244;24096;-76
2023/03/07 03:13:31;;;;;;;21.53;11.63;;;-4.60;99.90;-5.80;98611;;;;579524;244;24082;-78
2023/03/07 03:15:59;;;;;;;16.93;11.67;;;-4.50;99.90;-5.80;98607;;;;579510;244;24048;-74
2023/03/07 03:18:27;;;;;;;16.57;11.97;;;-4.50;99.90;-5.80;98601;;;;579489;244;24092;-78
2023/03/07 03:20:58;;;;;;;18.73;13.10;;;-4.50;99.90;-5.90;98605;;;;579545;244;24063;-74
2023/03/07 03:23:23;;;;;;;19.65;13.10;;;-4.50;99.90;-5.90;98600;;;;573638;244;35219;-71
2023/03/07 03:26:00;;;;;;;16.40;10.40;;;-4.60;99.90;-5.90;98603;;;;577039;244;24136;-75
2023/03/07 03:28:25;;;;;;;17.43;12.27;;;-4.60;99.90;-5.90;98593;;;;576877;244;24116;-73
2023/03/07 03:31:08;;;;;;;16.53;12.17;;;-4.60;99.90;-5.90;98600;;;;576471;248;24076;-74
2023/03/07 03:33:36;;;;;;;19.37;12.50;;;-4.60;99.90;-5.90;98593;;;;587575;243;24162;-78
2023/03/07 03:36:10;;;;;;;19.03;12.53;;;-4.60;99.90;-5.90;98589;;;;579134;244;25279;-77
2023/03/07 03:38:38;;;;;;;16.83;11.80;;;-4.60;99.90;-5.80;98585;;;;588970;244;24118;-79
2023/03/07 03:41:07;;;;;;;23.57;12.97;;;-4.50;99.90;-5.80;98586;;;;579074;244;24112;-79
2023/03/07 03:43:37;;;;;;;17.13;12.67;;;-4.60;99.90;-5.80;98579;;;;589100;243;24073;-78
2023/03/07 03:46:06;;;;;;;17.10;12.57;;;-4.50;99.90;-5.80;98582;;;;578888;244;24121;-79
2023/03/07 03:48:30;;;;;;;21.97;12.53;;;-4.50;99.90;-5.80;98575;;;;580315;243;24187;-77
2023/03/07 03:51:07;;;;;;;20.30;13.03;;;-4.50;99.90;-5.80;98573;;;;580019;243;24120;-78
2023/03/07 03:53:35;;;;;;;22.13;13.00;;;-4.50;99.90;-5.80;98574;;;;582219;243;24084;-76
2023/03/07 03:56:12;;;;;;;17.63;12.67;;;-4.50;99.90;-5.70;98565;;;;579736;243;24116;-79
2023/03/07 03:58:42;;;;;;;18.33;12.70;;;-4.50;99.90;-5.70;98561;;;;579670;243;24078;-75
2023/03/07 04:01:13;;;;;;;19.67;13.50;;;-4.50;99.90;-5.70;98560;;;;589226;243;24128;-77
2023/03/07 04:03:38;;;;;;;23.15;14.13;;;-4.40;99.90;-5.70;98554;;;;574262;243;35179;-78
2023/03/07 04:06:06;;;;;;;21.73;13.07;;;-4.40;99.90;-5.70;98548;;;;579429;243;24066;-79
2023/03/07 04:08:34;;;;;;;21.37;13.33;;;-4.40;99.90;-5.60;98555;;;;589529;243;24120;-77
2023/03/07 04:11:03;;;;;;;23.50;15.75;;;-4.30;99.90;-5.60;98551;;;;584293;243;35189;-78
2023/03/07 04:13:30;;;;;;;23.33;14.57;;;-4.30;99.90;-5.50;98549;;;;579762;243;24049;-78
2023/03/07 04:15:58;;;;;;;22.33;15.63;;;-4.30;99.90;-5.50;98550;;;;589426;243;24090;-78
2023/03/07 04:18:26;;;;;;;26.40;16.07;;;-4.20;99.90;-5.50;98551;;;;579261;243;25111;-79
2023/03/07 04:20:57;;;;;;;30.23;15.90;;;-4.20;99.90;-5.40;98548;;;;579452;243;24052;-78
2023/03/07 04:23:22;;;;;;;25.03;15.97;;;-4.20;99.90;-5.50;98539;;;;588190;243;24127;-76
2023/03/07 04:25:50;;;;;;;22.10;13.37;;;-4.20;99.90;-5.50;98534;;;;589527;242;24054;-79
2023/03/07 04:28:20;;;;;;;25.77;15.03;;;-4.20;99.90;-5.40;98529;;;;579262;244;25132;-79
2023/03/07 04:30:48;;;;;;;22.13;14.03;;;-4.20;99.90;-5.40;98521;;;;579217;244;24147;-76
2023/03/07 04:33:13;;;;;;;20.10;13.40;;;-4.20;99.90;-5.40;98534;;;;578960;244;24155;-80
2023/03/07 04:35:44;;;;;;;20.77;13.27;;;-4.20;99.90;-5.40;98522;;;;579041;244;24158;-79
2023/03/07 04:38:09;;;;;;;23.07;14.07;;;-4.20;99.90;-5.40;98517;;;;578977;244;24089;-76
2023/03/07 04:40:37;;;;;;;20.03;12.53;;;-4.20;99.90;-5.40;98527;;;;579174;244;24098;-73
2023/03/07 04:43:05;;;;;;;22.53;14.33;;;-4.20;99.90;-5.40;98519;;;;579181;244;24104;-77
2023/03/07 04:45:37;;;;;;;25.47;15.57;;;-4.20;99.90;-5.40;98519;;;;579078;244;24067;-77
2023/03/07 04:48:01;;;;;;;22.37;15.20;;;-4.20;99.90;-5.50;98514;;;;578626;244;24154;-73
2023/03/07 04:50:30;;;;;;;21.33;12.10;;;-4.30;99.90;-5.50;98506;;;;579186;244;24079;-73
2023/03/07 04:52:58;;;;;;;19.27;13.43;;;-4.30;99.90;-5.60;98509;;;;579086;244;24109;-72
2023/03/07 04:55:26;;;;;;;25.00;13.70;;;-4.30;99.90;-5.60;98502;;;;579249;244;24082;-75
2023/03/07 04:57:56;;;;;;;24.40;15.47;;;-4.30;99.90;-5.60;98494;;;;579278;241;24113;-80
2023/03/07 05:00:22;;;;;;;23.20;13.83;;;-4.30;99.90;-5.60;98504;;;;580525;243;24077;-74
2023/03/07 05:02:50;;;;;;;27.03;16.37;;;-4.40;99.90;-5.60;98494;;;;580406;243;24204;-76
2023/03/07 05:05:18;;;;;;;22.53;15.50;;;-4.40;99.90;-5.60;98495;;;;580052;243;24047;-74
2023/03/07 05:07:46;;;;;;;21.43;12.67;;;-4.40;99.90;-5.60;98488;;;;580138;243;24069;-78
2023/03/07 05:10:14;;;;;;;29.87;15.90;;;-4.40;99.90;-5.60;98494;;;;579725;243;24119;-75
2023/03/07 05:12:42;;;;;;;25.83;15.73;;;-4.40;99.90;-5.50;98490;;;;579923;243;24060;-78
2023/03/07 05:15:13;;;;;;;30.87;16.00;;;-4.30;99.90;-5.40;98487;;;;579586;243;24100;-76
2023/03/07 05:17:37;;;;;;;24.07;15.20;;;-4.20;99.90;-5.40;98492;;;;578981;243;24051;-76
2023/03/07 05:20:08;;;;;;;24.40;15.93;;;-4.10;99.90;-5.30;98475;;;;579502;243;24085;-79
2023/03/07 05:22:34;;;;;;;31.43;16.03;;;-4.10;99.90;-5.20;98476;;;;579300;243;24098;-76
2023/03/07 05:25:07;;;;;;;26.57;16.57;;;-3.90;99.90;-5.10;98473;;;;579838;243;24075;-77
2023/03/07 05:27:32;;;;;;;26.73;18.47;;;-3.80;99.90;-5.10;98469;;;;579370;243;24083;-78
2023/03/07 05:30:00;;;;;;;23.00;14.93;;;-3.90;99.90;-5.00;98468;;;;579804;243;24103;-73
2023/03/07 05:32:28;;;;;;;24.90;16.50;;;-3.80;99.90;-4.90;98468;;;;579816;243;25074;-74
2023/03/07 05:34:56;;;;;;;22.77;16.63;;;-3.70;99.90;-4.90;98456;;;;579187;244;24103;-72
2023/03/07 05:37:24;;;;;;;27.97;15.60;;;-3.70;99.90;-4.80;98459;;;;579230;244;24099;-78
2023/03/07 05:39:52;;;;;;;28.07;16.17;;;-3.60;99.90;-4.70;98456;;;;579179;244;24100;-78
2023/03/07 05:42:20;;;;;;;27.93;19.07;;;-3.50;99.90;-4.70;98460;;;;579555;244;24072;-75
2023/03/07 05:44:52;;;;;;;29.10;18.07;;;-3.50;99.90;-4.60;98459;;;;579238;244;24067;-73
2023/03/07 05:47:17;;;;;;;30.77;21.53;;;-3.40;99.90;-4.50;98461;;;;588800;244;24120;-78
2023/03/07 05:49:45;;;;;;;34.17;21.80;;;-3.30;99.90;-4.40;98467;;;;579266;244;24094;-71
2023/03/07 05:52:14;;;;;;;24.80;18.83;;;-3.20;99.90;-4.30;98457;;;;579077;244;24114;-72
2023/03/07 05:54:42;;;;;;;23.03;16.13;;;-3.20;99.90;-4.20;98458;;;;579217;244;24103;-74
2023/03/07 05:57:10;;;;;;;26.90;16.47;;;-3.10;99.90;-4.20;98454;;;;579137;244;24047;-77
2023/03/07 05:59:38;;;;;;;25.00;14.60;;;-3.00;99.90;-4.10;98446;;;;579513;244;24103;-75
2023/03/07 06:02:06;;;;;;;25.73;14.83;;;-2.90;99.90;-4.00;98456;;;;579458;244;24092;-77
2023/03/07 06:04:34;;;;;;;22.30;14.57;;;-2.90;99.90;-4.00;98446;;;;579455;244;24462;-75
2023/03/07 06:07:02;;;;;;;23.07;14.80;;;-2.80;99.90;-4.00;98449;;;;579500;244;24080;-75
2023/03/07 06:09:29;;;;;;;24.87;15.27;;;-2.80;99.90;-3.90;98456;;;;579564;241;24092;-75
2023/03/07 06:11:57;;;;;;;24.60;14.87;;;-2.80;99.90;-3.90;98435;;;;580941;243;24094;-74
2023/03/07 06:14:25;;;;;;;24.23;14.87;;;-2.70;99.90;-3.80;98445;;;;580513;243;24097;-73
2023/03/07 06:16:53;;;;;;;26.20;14.33;;;-2.60;99.90;-3.70;98448;;;;580433;243;24185;-76
2023/03/07 06:19:21;;;;;;;23.20;15.07;;;-2.60;99.90;-3.60;98440;;;;580216;243;25308;-74
2023/03/07 06:21:49;;;;;;;59.33;28.57;;;-2.40;99.90;-3.40;98425;;;;580219;243;24065;-74
2023/03/07 06:24:17;;;;;;;36.33;18.50;;;-2.30;99.90;-3.20;98434;;;;580096;243;24054;-75
2023/03/07 06:26:45;;;;;;;34.87;21.73;;;-2.10;99.90;-3.00;98433;;;;579739;243;24137;-74
2023/03/07 06:29:13;;;;;;;32.33;20.37;;;-1.90;99.90;-2.80;98432;;;;579386;243;24081;-74
2023/03/07 06:31:41;;;;;;;32.50;19.23;;;-1.80;99.90;-2.70;98418;;;;579527;243;24058;-73
2023/03/07 06:34:09;;;;;;;29.13;19.43;;;-1.60;99.90;-2.50;98419;;;;579365;243;24079;-73
2023/03/07 06:36:37;;;;;;;25.33;15.00;;;-1.40;99.90;-2.30;98423;;;;589393;243;24068;-75
2023/03/07 06:39:04;;;;;;;22.30;13.93;;;-1.20;99.90;-2.10;98422;;;;579407;243;24058;-76
2023/03/07 06:41:32;;;;;;;20.80;13.77;;;-1.10;99.90;-1.80;98423;;;;579889;243;24153;-74
2023/03/07 06:44:00;;;;;;;23.80;12.67;;;-0.80;99.90;-1.60;98413;;;;579380;243;24100;-73
2023/03/07 06:46:28;;;;;;;22.80;12.53;;;-0.60;99.90;-1.30;98414;;;;579230;244;24086;-74
2023/03/07 06:48:56;;;;;;;22.07;11.77;;;-0.30;99.90;-1.10;98411;;;;579222;244;24060;-74
2023/03/07 06:51:24;;;;;;;9.87;5.87;;;-0.10;99.90;-0.80;98401;;;;579155;244;24090;-76
2023/03/07 06:53:52;;;;;;;14.97;7.03;;;0.10;99.90;-0.60;98409;;;;579248;244;24071;-73
2023/03/07 06:56:20;;;;;;;18.17;7.23;;;0.40;99.90;-0.50;98399;;;;577890;244;25127;-74
2023/03/07 06:58:48;;;;;;;11.13;6.33;;;0.50;99.90;-0.50;98382;;;;577824;244;24134;-76
2023/03/07 07:01:18;;;;;;;10.00;6.30;;;0.60;99.90;-0.10;98399;;;;578242;244;24081;-77
2023/03/07 07:03:46;;;;;;;11.70;6.87;;;0.80;99.90;0.20;98393;;;;579621;244;24072;-75
2023/03/07 07:06:14;;;;;;;11.73;6.30;;;1.10;99.90;0.70;98388;;;;577472;244;24126;-77
2023/03/07 07:08:42;;;;;;;11.67;6.93;;;1.60;99.90;1.60;98388;;;;588455;244;24106;-78
2023/03/07 07:11:10;;;;;;;17.83;8.40;;;2.30;99.90;2.10;98386;;;;578280;244;24052;-77
2023/03/07 07:13:39;;;;;;;25.25;11.90;;;3.40;99.90;2.50;98387;;;;574540;244;35123;-77
2023/03/07 07:16:06;;;;;;;15.97;9.73;;;3.40;99.90;2.50;98369;;;;589605;243;24094;-77
2023/03/07 07:18:34;;;;;;;23.87;11.00;;;3.50;99.90;2.40;98373;;;;581884;244;24092;-76
2023/03/07 07:21:04;;;;;;;14.10;8.43;;;3.50;99.90;2.20;98366;;;;577955;241;24097;-77
2023/03/07 07:23:30;;;;;;;9.73;5.63;;;3.40;99.90;1.80;98345;;;;579851;243;24094;-76
2023/03/07 07:26:01;;;;;;;12.60;6.77;;;3.10;99.90;1.50;98345;;;;579302;243;24198;-75
2023/03/07 07:28:26;;;;;;;12.83;7.47;;;2.80;99.90;1.50;98340;;;;588496;243;24141;-76
2023/03/07 07:30:54;;;;;;;13.67;5.50;;;2.70;99.90;1.50;98335;;;;578713;243;24067;-75
2023/03/07 07:33:22;;;;;;;8.83;4.93;;;2.60;99.90;1.10;98326;;;;578412;243;24056;-74
2023/03/07 07:35:50;;;;;;;10.53;5.93;;;2.30;99.90;0.90;98333;;;;578622;243;24052;-73
2023/03/07 07:38:18;;;;;;;10.90;6.53;;;2.10;99.90;1.10;98313;;;;589353;243;24099;-72
2023/03/07 07:40:49;;;;;;;9.97;7.40;;;2.20;99.90;2.00;98311;;;;578772;243;24068;-73
2023/03/07 07:43:13;;;;;;;14.43;7.07;;;2.70;99.90;3.30;98314;;;;578613;243;24125;-74
2023/03/07 07:45:41;;;;;;;21.40;11.85;;;5.40;99.90;4.40;98324;;;;572895;243;35239;-75
2023/03/07 07:48:09;;;;;;;15.90;8.53;;;4.90;99.90;5.00;98321;;;;582387;243;27461;-74
2023/03/07 07:50:37;;;;;;;13.87;8.97;;;5.70;99.90;5.40;98321;;;;578610;243;24233;-73
2023/03/07 07:53:05;;;;;;;15.73;8.53;;;6.20;99.90;5.60;98304;;;;578508;243;24075;-73
2023/03/07 07:55:33;;;;;;;14.47;8.60;;;6.50;99.90;5.90;98286;;;;578502;243;24084;-73
2023/03/07 07:58:01;;;;;;;16.10;8.67;;;6.90;99.90;5.80;98292;;;;578181;244;24081;-74
2023/03/07 08:00:29;;;;;;;16.87;9.57;;;6.90;99.90;4.90;98289;;;;578301;244;24056;-73
2023/03/07 08:02:57;;;;;;;22.13;9.33;;;6.40;99.90;4.10;98261;;;;581980;244;24033;-73
2023/03/07 08:05:24;;;;;;;17.50;11.60;;;5.70;99.90;3.60;98270;;;;583503;242;35236;-77
2023/03/07 08:07:52;;;;;;;20.15;12.50;;;5.10;99.90;3.10;98248;;;;584597;243;35136;-75
2023/03/07 08:10:20;;;;;;;20.60;12.75;;;4.60;99.90;2.50;98260;;;;584353;243;35115;-75
2023/03/07 08:12:52;;;;;;;22.30;11.50;;;3.50;99.90;2.00;98247;;;;589527;242;24090;-76
2023/03/07 08:15:23;;;;;;;17.77;8.90;;;3.40;99.90;1.90;98246;;;;588404;244;24056;-77
2023/03/07 08:17:51;;;;;;;9.50;6.00;;;3.10;99.90;1.80;98238;;;;579338;243;24072;-75
2023/03/07 08:20:16;;;;;;;18.17;7.70;;;2.70;99.90;1.50;98232;;;;588157;243;24109;-75
2023/03/07 08:22:44;;;;;;;11.90;5.90;;;2.70;99.90;1.30;98235;;;;578262;244;24097;-74
2023/03/07 08:25:19;;;;;;;10.30;4.07;;;2.50;99.90;1.10;98229;;;;584533;244;24060;-78
2023/03/07 08:27:45;;;;;;;5.93;4.23;;;2.20;99.90;0.90;98228;;;;579518;244;24126;-76
2023/03/07 08:30:13;;;;;;;11.83;6.47;;;2.00;99.90;0.70;98214;;;;576322;244;24100;-77
2023/03/07 08:32:41;;;;;;;14.43;6.63;;;1.80;99.90;0.50;98225;;;;579165;241;24078;-78
2023/03/07 08:35:09;;;;;;;11.17;6.37;;;1.60;99.90;0.40;98217;;;;579339;243;24167;-78
2023/03/07 08:37:38;;;;;;;10.43;4.77;;;1.50;99.90;0.40;98210;;;;578695;243;24052;-77
2023/03/07 08:40:05;;;;;;;5.23;2.50;;;1.40;99.90;0.40;98205;;;;577738;248;24104;-79
2023/03/07 08:42:33;;;;;;;17.90;5.40;;;1.40;99.90;0.30;98195;;;;580217;243;24053;-76
2023/03/07 08:45:04;;;;;;;8.47;3.20;;;1.40;99.90;0.40;98195;;;;578817;243;24046;-75
2023/03/07 08:47:29;;;;;;;7.53;4.57;;;1.40;99.90;0.50;98180;;;;582478;243;24090;-78
2023/03/07 08:49:57;;;;;;;5.93;4.00;;;1.50;99.90;0.60;98181;;;;589148;243;24050;-75
2023/03/07 08:52:25;;;;;;;12.88;7.70;;;1.60;99.90;0.60;98165;;;;573590;243;35110;-77
2023/03/07 08:54:53;;;;;;;11.13;5.00;;;1.60;99.90;0.90;98182;;;;578277;243;24109;-78
2023/03/07 08:57:24;;;;;;;10.93;4.90;;;1.80;99.90;1.00;98162;;;;579827;243;24119;-77
2023/03/07 08:59:52;;;;;;;9.90;4.57;;;2.00;99.90;1.10;98150;;;;579259;243;24058;-78
2023/03/07 09:02:17;;;;;;;7.30;3.57;;;2.10;99.90;1.20;98151;;;;577652;243;24106;-76
2023/03/07 09:04:45;;;;;;;11.53;4.23;;;2.20;99.90;1.10;98142;;;;578093;243;24095;-76
2023/03/07 09:07:13;;;;;;;8.23;4.87;;;2.20;99.90;1.20;98146;;;;578064;243;24066;-79
2023/03/07 09:09:41;;;;;;;9.93;6.03;;;2.20;99.90;1.30;98130;;;;578091;244;24129;-77
2023/03/07 09:12:09;;;;;;;13.50;5.90;;;2.30;99.90;1.30;98132;;;;577914;244;24067;-77
2023/03/07 09:14:37;;;;;;;9.67;5.40;;;2.30;99.90;1.30;98138;;;;577954;244;24118;-78
2023/03/07 09:17:05;;;;;;;12.47;6.17;;;2.30;99.90;1.30;98126;;;;577964;244;24114;-78
2023/03/07 09:19:34;;;;;;;12.87;7.10;;;2.30;99.90;1.30;98119;;;;577792;244;26349;-78
2023/03/07 09:22:01;;;;;;;9.60;6.40;;;2.30;99.90;1.30;98122;;;;579232;244;24060;-78
2023/03/07 09:24:33;;;;;;;8.13;6.03;;;2.30;99.90;1.20;98084;;;;577868;244;24109;-78
2023/03/07 09:26:57;;;;;;;9.00;5.80;;;2.20;99.90;0.90;98096;;;;577545;244;24078;-78
2023/03/07 09:29:25;;;;;;;11.13;5.23;;;2.00;99.90;0.70;98084;;;;577875;244;24089;-78
2023/03/07 09:31:53;;;;;;;16.80;8.57;;;1.80;99.90;0.50;98077;;;;578216;244;24043;-78
2023/03/07 09:34:21;;;;;;;12.43;6.17;;;1.60;99.90;0.40;98077;;;;578231;244;24073;-76
2023/03/07 09:36:48;;;;;;;8.63;5.97;;;1.50;99.90;0.40;98077;;;;578202;244;24109;-77
2023/03/07 09:39:20;;;;;;;9.60;5.37;;;1.40;99.90;0.40;98074;;;;576957;248;24205;-76
2023/03/07 09:42:25;;;;;;;14.53;5.30;;;1.50;99.90;0.40;98064;;;;581502;240;24169;-74
2023/03/07 09:45:02;;;;;;;13.07;5.97;;;1.40;99.90;0.40;98052;;;;578373;243;24074;-77
2023/03/07 09:47:48;;;;;;;5.57;4.17;;;1.40;99.90;0.30;98060;;;;578902;243;24091;-74
2023/03/07 09:50:34;;;;;;;11.30;6.07;;;1.40;99.90;0.20;98044;;;;577959;243;24102;-77
2023/03/07 09:53:02;;;;;;;13.97;5.47;;;1.30;99.90;0.10;98027;;;;576318;243;24074;-75
2023/03/07 09:55:30;;;;;;;14.27;8.43;;;1.00;99.90;-0.10;98032;;;;580033;243;24117;-73
2023/03/07 09:57:58;;;;;;;9.70;5.47;;;1.00;99.90;-0.20;98031;;;;579618;243;24077;-76
2023/03/07 10:00:35;;;;;;;16.07;8.73;;;0.90;99.90;-0.30;98015;;;;578169;243;24084;-75
2023/03/07 10:03:05;;;;;;;20.83;9.73;;;0.80;99.90;-0.30;98026;;;;578287;243;24121;-73
2023/03/07 10:05:39;;;;;;;22.00;5.80;;;0.80;99.90;-0.40;98026;;;;579232;243;24087;-74
2023/03/07 10:08:07;;;;;;;14.80;7.33;;;0.60;99.90;-0.50;98028;;;;576945;246;24119;-75
2023/03/07 10:10:41;;;;;;;25.70;11.17;;;0.60;99.90;-0.60;98032;;;;576994;243;24122;-75
2023/03/07 10:13:11;;;;;;;25.60;12.70;;;0.50;99.90;-0.60;98021;;;;589580;243;24070;-77
2023/03/07 10:15:45;;;;;;;30.33;15.60;;;0.50;99.90;-0.60;98017;;;;572253;243;35147;-71
2023/03/07 10:18:40;;;;;;;23.80;10.90;;;0.50;99.90;-0.60;98005;;;;579585;243;24060;-76
2023/03/07 10:21:23;;;;;;;20.53;10.87;;;0.50;99.90;-0.60;98005;;;;579401;244;24092;-73
2023/03/07 10:24:15;;;;;;;15.43;8.80;;;0.50;99.90;-0.60;97997;;;;579094;244;24059;-78
2023/03/07 10:27:07;;;;;;;30.80;17.77;;;0.50;99.90;-0.60;97995;;;;587930;244;24136;-75
2023/03/07 10:29:51;;;;;;;31.43;18.43;;;0.50;99.90;-0.50;97990;;;;577893;244;24090;-73
2023/03/07 10:32:36;;;;;;;36.97;21.20;;;0.60;99.90;-0.60;97984;;;;589477;243;24067;-72
2023/03/07 10:35:20;;;;;;;35.07;20.20;;;0.50;99.90;-0.50;97984;;;;579046;244;24094;-77
2023/03/07 10:37:57;;;;;;;41.53;23.33;;;0.50;99.90;-0.50;97968;;;;579081;244;24076;-78
2023/03/07 10:40:47;;;;;;;36.27;20.93;;;0.50;99.90;-0.60;97963;;;;584631;244;24117;-77
2023/03/07 10:43:22;;;;;;;37.20;21.27;;;0.50;99.90;-0.60;97955;;;;584099;244;24115;-73
2023/03/07 10:45:50;;;;;;;37.50;22.27;;;0.50;99.90;-0.40;97953;;;;578045;244;24063;-77
2023/03/07 10:48:22;;;;;;;35.20;21.20;;;0.60;99.90;-0.50;97936;;;;579074;244;24077;-76
2023/03/07 10:51:08;;;;;;;35.93;20.40;;;0.60;99.90;-0.40;97928;;;;578875;244;24087;-78
2023/03/07 10:53:35;;;;;;;37.53;21.87;;;0.70;99.90;-0.40;97937;;;;579012;244;24070;-79
2023/03/07 10:56:13;;;;;;;36.87;19.73;;;0.70;99.90;-0.40;97940;;;;589397;241;24051;-79
2023/03/07 10:58:41;;;;;;;46.00;24.63;;;0.70;99.90;-0.40;97925;;;;580287;243;24088;-77
2023/03/07 11:01:15;;;;;;;33.80;19.20;;;0.70;99.90;-0.30;97924;;;;573001;243;24103;-78
2023/03/07 11:03:52;;;;;;;32.43;18.33;;;0.70;99.90;-0.40;97916;;;;590250;243;24117;-74
2023/03/07 11:06:38;;;;;;;34.43;19.83;;;0.70;99.90;-0.40;97912;;;;590081;243;24104;-72
2023/03/07 11:09:33;;;;;;;34.73;18.43;;;0.70;99.90;-0.30;97901;;;;584977;243;24062;-75
2023/03/07 11:12:06;;;;;;;36.17;19.47;;;0.80;99.90;-0.30;97892;;;;588375;243;24063;-75
2023/03/07 11:14:52;;;;;;;33.80;18.13;;;0.70;99.90;-0.20;97887;;;;579992;243;25111;-77
2023/03/07 11:17:42;;;;;;;34.33;19.50;;;0.90;99.90;-0.20;97886;;;;579995;243;24082;-73
2023/03/07 11:20:25;;;;;;;34.17;19.37;;;0.80;99.90;-0.10;97896;;;;580923;243;24051;-73
2023/03/07 11:23:25;;;;;;;27.37;12.07;;;1.00;99.90;-0.10;97866;;;;579965;243;24064;-70